WetterOnline ( https://www.wetteronline.de )

Wetter aktuell Dierberg

Aktuelles Wetter: Neuruppin - Alt Ruppin (50m)

6-stündlich | Neueste Meldungen
Ortszeit Temperatur Wetter
Fr, 24.05. 8:00 14.4° C leicht bewölkt
Fr, 24.05. 2:00 7.9° C bewölkt
Do, 23.05. 20:00 18.0° C wolkig
Do, 23.05. 14:00 17.5° C wolkig
Do, 23.05. 8:00 10.0° C wolkig
Do, 23.05. 2:00 10.5° C leicht bewölkt
Mi, 22.05. 20:00 13.4° C bedeckt
Mi, 22.05. 14:00 12.4° C bedeckt
Ortszeit Temperatur Wetter
Fr, 24.05. 9:30 17.3° C wolkig
Fr, 24.05. 9:20 17.3° C wolkig
Fr, 24.05. 9:10 17.7° C bedeckt
Fr, 24.05. 9:00 17.3° C bedeckt
Fr, 24.05. 8:50 17.3° C bedeckt
Fr, 24.05. 8:40 16.6° C bedeckt
Fr, 24.05. 8:30 15.9° C wolkig
Fr, 24.05. 8:00 14.4° C leicht bewölkt
Fr, 24.05. 7:30 12.9° C bedeckt
Fr, 24.05. 7:00 11.5° C bedeckt
Fr, 24.05. 6:30 9.2° C bewölkt
Ortszeit Relative Feuchte Sichtweite
Fr, 24.05. 8:00 65% 40 km
Fr, 24.05. 2:00 88% 45 km
Do, 23.05. 20:00 42% 50 km
Do, 23.05. 14:00 42% 60 km
Do, 23.05. 8:00 79% 40 km
Do, 23.05. 2:00 78% 45 km
Mi, 22.05. 20:00 72% 40 km
Mi, 22.05. 14:00 84% 19 km
Ortszeit Relative Feuchte Sichtweite
Fr, 24.05. 9:30 49% 50 km
Fr, 24.05. 9:20 49% -
Fr, 24.05. 9:10 49% -
Fr, 24.05. 9:00 51% 45 km
Fr, 24.05. 8:50 51% -
Fr, 24.05. 8:40 51% -
Fr, 24.05. 8:30 55% 35 km
Fr, 24.05. 8:00 65% 40 km
Fr, 24.05. 7:30 67% 45 km
Fr, 24.05. 7:00 73% 45 km
Fr, 24.05. 6:30 83% 40 km
Ortszeit Niederschlagsmenge Niederschlagsart
Fr, 24.05. 8:00 0.0 l/m2 in 12 Std. -
Fr, 24.05. 2:00 0.0 l/m2 in 6 Std. -
Do, 23.05. 20:00 0.0 l/m2 in 12 Std. -
Do, 23.05. 14:00 0.0 l/m2 in 6 Std. -
Do, 23.05. 8:00 0.0 l/m2 in 12 Std. -
Do, 23.05. 2:00 0.0 l/m2 in 6 Std. -
Mi, 22.05. 20:00 0.1 l/m2 in 12 Std. -
Mi, 22.05. 14:00 0.1 l/m2 in 6 Std. Sprühregen, Niederschlag
Ortszeit Niederschlagsmenge Niederschlagsart
Fr, 24.05. 9:30 0.0 l/m2 in 1 Std. -
Fr, 24.05. 9:20 keine Meldung -
Fr, 24.05. 9:10 keine Meldung -
Fr, 24.05. 9:00 0.0 l/m2 in 1 Std. -
Fr, 24.05. 8:50 keine Meldung -
Fr, 24.05. 8:40 keine Meldung -
Fr, 24.05. 8:30 0.0 l/m2 in 1 Std. -
Fr, 24.05. 8:00 0.0 l/m2 in 1 Std. -
Fr, 24.05. 7:30 0.0 l/m2 in 1 Std. -
Fr, 24.05. 7:00 0.0 l/m2 in 1 Std. -
Fr, 24.05. 6:30 0.0 l/m2 in 1 Std. -
Ortszeit Stärke Spitze Richtung
km/h Bft. km/h Grad Sektor
Fr, 24.05. 8:00 4 1 7 170° S
Fr, 24.05. 2:00 0 0 7 - -
Do, 23.05. 20:00 4 1 25 20° N
Do, 23.05. 14:00 11 2 29 310° NW
Do, 23.05. 8:00 7 2 18 320° NW
Do, 23.05. 2:00 7 2 29 310° NW
Mi, 22.05. 20:00 13 3 37 310° NW
Mi, 22.05. 14:00 15 3 33 300° NW
Ortszeit Stärke Spitze Richtung
km/h Bft. km/h Grad Sektor
Fr, 24.05. 9:30 7 2 19 180° S
Fr, 24.05. 9:20 7 2 - 180° S
Fr, 24.05. 9:10 9 2 - 200° S
Fr, 24.05. 9:00 7 2 18 190° S
Fr, 24.05. 8:50 7 2 - 190° S
Fr, 24.05. 8:40 9 2 - 180° S
Fr, 24.05. 8:30 7 2 14 190° S
Fr, 24.05. 8:00 4 1 7 170° S
Fr, 24.05. 7:30 4 1 7 160° S
Fr, 24.05. 7:00 2 1 6 110° O
Fr, 24.05. 6:30 4 1 4 70° O
Ortszeit Untergrenze Bedeckung Gattung
total tief tief mittel hoch
Fr, 24.05. 8:00 5700 m 3/8 2/8 - - -
Fr, 24.05. 2:00 6600 m 8/8 7/8 - - -
Do, 23.05. 20:00 2100 m 8/8 3/8 - - -
Do, 23.05. 14:00 1380 m 7/8 4/8 - - -
Do, 23.05. 8:00 9000 m 8/8 0/8 - - -
Do, 23.05. 2:00 3900 m 4/8 4/8 - - -
Mi, 22.05. 20:00 660 m 8/8 8/8 - - -
Mi, 22.05. 14:00 270 m 8/8 8/8 - - -
Ortszeit Bedeckungsgrad in Achtel und Wolkenuntergrenze
Fr, 24.05. 9:30 1(1800m) 8(5400m) 8(6300m)
Fr, 24.05. 9:20 1(1800m) 8(5400m) 8(6300m)
Fr, 24.05. 9:10 8(5400m) 8(6300m)
Fr, 24.05. 9:00 8(5400m) 8(6600m)
Fr, 24.05. 8:50 8(5400m) 8(6600m)
Fr, 24.05. 8:40 8(5400m) 8(6600m)
Fr, 24.05. 8:30 5(5400m) 5(6600m)
Fr, 24.05. 8:00 2(5700m) 3(9000m)
Fr, 24.05. 7:30 8(5700m) 8(6600m) 8(10500m)
Fr, 24.05. 7:00 8(5400m) 8(10500m)
Fr, 24.05. 6:30 7(5700m)
Ortszeit Luftdruck NN (hPa) Tendenz (hPa in 3 Std.)
Fr, 24.05. 8:00 1015 - 0,5
Fr, 24.05. 2:00 1017 - 0,7
Do, 23.05. 20:00 1017 - 0,4
Do, 23.05. 14:00 1018 - 0,5
Do, 23.05. 8:00 1019 + 0,7
Do, 23.05. 2:00 1018 + 0,8
Mi, 22.05. 20:00 1016 + 0,8
Mi, 22.05. 14:00 1014 + 1,5
Ortszeit Luftdruck NN (hPa) Tendenz (hPa in 3 Std.)
Fr, 24.05. 9:30 1015 - 0,7
Fr, 24.05. 9:20 1015 keine Meldung
Fr, 24.05. 9:10 1015 keine Meldung
Fr, 24.05. 9:00 1015 - 0,7
Fr, 24.05. 8:50 1015 keine Meldung
Fr, 24.05. 8:40 1015 keine Meldung
Fr, 24.05. 8:30 1015 - 0,5
Fr, 24.05. 8:00 1015 - 0,5
Fr, 24.05. 7:30 1015 - 0,3
Fr, 24.05. 7:00 1015 - 0,7
Fr, 24.05. 6:30 1015 - 0,8
Ortszeit Schneehöhe (cm)
Fr, 24.05. 8:00 -
Fr, 24.05. 2:00 -
Do, 23.05. 20:00 -
Do, 23.05. 14:00 -
Do, 23.05. 8:00 -
Do, 23.05. 2:00 -
Mi, 22.05. 20:00 -
Mi, 22.05. 14:00 -
Ortszeit Schneehöhe (cm)
Fr, 24.05. 9:30 -
Fr, 24.05. 9:20 -
Fr, 24.05. 9:10 -
Fr, 24.05. 9:00 -
Fr, 24.05. 8:50 -
Fr, 24.05. 8:40 -
Fr, 24.05. 8:30 -
Fr, 24.05. 8:00 -
Fr, 24.05. 7:30 -
Fr, 24.05. 7:00 -
Fr, 24.05. 6:30 -
Link zu dieser Seite / Seite empfehlen

Das Wetter in ...